Time;durP1;ratioP1;P1;durP2;ratioP2;P2;SDS_P1;SDS_P2;PMS_P1;PMS_P2;Temp;Humidity;BMP_temperature;BMP_pressure;BME280_temperature;BME280_humidity;BME280_pressure;Samples;Min_cycle;Max_cycle;Signal;HPM_P1;HPM_P2
2022/09/16 00:02:24;;;;;;;;;;;22.90;61.90;;;;;;5046144;28;88205;-40
2022/09/16 00:04:50;;;;;;;;;;;22.90;61.90;;;;;;5043095;28;88010;-40
2022/09/16 00:07:15;;;;;;;;;;;22.90;61.80;;;;;;5043056;27;89626;-40
2022/09/16 00:09:41;;;;;;;;;;;22.90;61.80;;;;;;5043337;28;87147;-40
2022/09/16 00:12:07;;;;;;;;;;;22.90;61.90;;;;;;5043524;28;87386;-40
2022/09/16 00:14:32;;;;;;;;;;;22.90;61.90;;;;;;5042714;27;89302;-40
2022/09/16 00:16:58;;;;;;;;;;;22.80;61.80;;;;;;5043418;27;87392;-40
2022/09/16 00:19:23;;;;;;;;;;;22.80;61.90;;;;;;5043525;27;86859;-40
2022/09/16 00:21:49;;;;;;;;;;;22.80;61.90;;;;;;5043397;27;88545;-40
2022/09/16 00:24:15;;;;;;;;;;;22.90;62.00;;;;;;5046439;27;87139;-40
2022/09/16 00:26:43;;;;;;;;;;;22.90;62.00;;;;;;5042618;28;89328;-40
2022/09/16 00:29:09;;;;;;;;;;;22.80;62.00;;;;;;5042480;27;87902;-40
2022/09/16 00:31:34;;;;;;;;;;;22.80;62.00;;;;;;5043140;28;88274;-41
2022/09/16 00:34:00;;;;;;;;;;;22.80;62.00;;;;;;5042842;27;89379;-40
2022/09/16 00:36:25;;;;;;;;;;;22.80;62.10;;;;;;5043452;27;87029;-40
2022/09/16 00:38:52;;;;;;;;;;;22.80;62.10;;;;;;5043141;28;87001;-40
2022/09/16 00:41:18;;;;;;;;;;;22.80;62.10;;;;;;5042561;27;89348;-40
2022/09/16 00:43:48;;;;;;;;;;;22.80;62.10;;;;;;5043127;27;87057;-40
2022/09/16 00:46:15;;;;;;;;;;;22.80;62.10;;;;;;5045626;27;88434;-40
2022/09/16 00:48:40;;;;;;;;;;;22.80;62.10;;;;;;5043008;28;87187;-40
2022/09/16 00:51:08;;;;;;;;;;;22.80;62.20;;;;;;5043054;28;88344;-40
2022/09/16 00:53:36;;;;;;;;;;;22.80;62.20;;;;;;5041737;27;90268;-40
2022/09/16 00:56:03;;;;;;;;;;;22.70;62.20;;;;;;5042804;27;86998;-41
2022/09/16 00:58:29;;;;;;;;;;;22.80;62.20;;;;;;5042778;27;88614;-40
2022/09/16 01:00:54;;;;;;;;;;;22.70;62.20;;;;;;5042588;27;87994;-40
2022/09/16 01:03:20;;;;;;;;;;;22.80;62.20;;;;;;5043021;28;87129;-40
2022/09/16 01:05:46;;;;;;;;;;;22.70;62.20;;;;;;5042718;27;87684;-40
2022/09/16 01:08:11;;;;;;;;;;;22.70;62.20;;;;;;5044509;28;88009;-41
2022/09/16 01:10:39;;;;;;;;;;;22.70;62.20;;;;;;5043278;28;87434;-40
2022/09/16 01:13:07;;;;;;;;;;;22.70;62.20;;;;;;5042346;28;88178;-40
2022/09/16 01:15:40;;;;;;;;;;;22.70;62.20;;;;;;5042379;27;87186;-40
2022/09/16 01:18:26;;;;;;;;;;;22.70;62.20;;;;;;5042322;27;87816;-40
2022/09/16 01:21:01;;;;;;;;;;;22.70;62.30;;;;;;5034160;28;88721;-40
2022/09/16 01:23:26;;;;;;;;;;;22.70;62.30;;;;;;5042603;27;87378;-40
2022/09/16 01:25:52;;;;;;;;;;;22.70;62.30;;;;;;5042316;28;87277;-40
2022/09/16 01:28:35;;;;;;;;;;;22.70;62.30;;;;;;5042157;28;88068;-40
2022/09/16 01:31:01;;;;;;;;;;;22.60;62.30;;;;;;5045399;27;86996;-40
2022/09/16 01:33:30;;;;;;;;;;;22.60;62.30;;;;;;5042230;27;88079;-40
2022/09/16 01:36:11;;;;;;;;;;;22.60;62.30;;;;;;5043033;27;86089;-40
2022/09/16 01:39:00;;;;;;;;;;;22.60;62.30;;;;;;5042758;28;86967;-40
2022/09/16 01:41:46;;;;;;;;;;;22.60;62.30;;;;;;5042041;27;87854;-40
2022/09/16 01:44:19;;;;;;;;;;;22.60;62.30;;;;;;5041037;28;87959;-40
2022/09/16 01:46:56;;;;;;;;;;;22.60;62.30;;;;;;5041925;28;90243;-40
2022/09/16 01:49:27;;;;;;;;;;;22.60;62.40;;;;;;5041979;27;88271;-40
2022/09/16 01:55:14;;;;;;;;;;;22.50;62.30;;;;;;5041391;28;87262;-41
2022/09/16 01:57:46;;;;;;;;;;;22.50;62.30;;;;;;5042278;27;87089;-40
2022/09/16 02:00:13;;;;;;;;;;;22.50;62.30;;;;;;5042233;27;87559;-40
2022/09/16 02:02:44;;;;;;;;;;;22.50;62.30;;;;;;5042166;27;88931;-40
2022/09/16 02:05:13;;;;;;;;;;;22.60;62.30;;;;;;5042186;27;87102;-40
2022/09/16 02:07:40;;;;;;;;;;;22.60;62.40;;;;;;5041616;27;87352;-40
2022/09/16 02:10:09;;;;;;;;;;;22.50;62.30;;;;;;5040648;27;88883;-40
2022/09/16 02:12:39;;;;;;;;;;;22.60;62.40;;;;;;5041556;28;87107;-40
2022/09/16 02:15:07;;;;;;;;;;;22.50;62.40;;;;;;5044037;28;87480;-41
2022/09/16 02:17:34;;;;;;;;;;;22.50;62.40;;;;;;5041622;27;87130;-40
2022/09/16 02:20:23;;;;;;;;;;;22.50;62.40;;;;;;5044702;28;87023;-40
2022/09/16 02:25:38;;;;;;;;;;;22.50;62.40;;;;;;5045558;28;87216;-40
2022/09/16 02:28:06;;;;;;;;;;;22.50;62.40;;;;;;5045620;27;87410;-40
2022/09/16 02:30:32;;;;;;;;;;;22.50;62.40;;;;;;5044640;28;88192;-40
2022/09/16 02:33:01;;;;;;;;;;;22.50;62.50;;;;;;5044857;27;87154;-40
2022/09/16 02:35:27;;;;;;;;;;;22.50;62.50;;;;;;5044582;27;88902;-40
2022/09/16 02:38:05;;;;;;;;;;;22.50;62.50;;;;;;5047630;28;87173;-40
2022/09/16 02:40:33;;;;;;;;;;;22.40;62.50;;;;;;5044842;27;87554;-40
2022/09/16 02:42:59;;;;;;;;;;;22.50;62.50;;;;;;5044474;27;88082;-40
2022/09/16 02:45:27;;;;;;;;;;;22.50;62.50;;;;;;5044601;27;87013;-40
2022/09/16 02:47:59;;;;;;;;;;;22.40;62.50;;;;;;5044746;28;87345;-40
2022/09/16 02:50:33;;;;;;;;;;;22.40;62.50;;;;;;5044227;27;89416;-40
2022/09/16 02:53:01;;;;;;;;;;;22.40;62.50;;;;;;5045284;27;86328;-40
2022/09/16 02:55:29;;;;;;;;;;;22.40;62.50;;;;;;5044837;28;87031;-40
2022/09/16 02:57:55;;;;;;;;;;;22.40;62.50;;;;;;5044222;28;88110;-40
2022/09/16 03:00:21;;;;;;;;;;;22.40;62.60;;;;;;5047202;27;88025;-40
2022/09/16 03:02:47;;;;;;;;;;;22.40;62.60;;;;;;5044249;27;88059;-40
2022/09/16 03:05:12;;;;;;;;;;;22.40;62.60;;;;;;5044733;28;86977;-40
2022/09/16 03:07:38;;;;;;;;;;;22.40;62.60;;;;;;5044514;28;87446;-40
2022/09/16 03:10:07;;;;;;;;;;;22.40;62.60;;;;;;5043690;27;89204;-40
2022/09/16 03:12:44;;;;;;;;;;;22.40;62.70;;;;;;5044384;27;87144;-40
2022/09/16 03:15:12;;;;;;;;;;;22.40;62.60;;;;;;5044329;27;87961;-40
2022/09/16 03:17:44;;;;;;;;;;;22.40;62.70;;;;;;5044478;28;87283;-40
2022/09/16 03:20:28;;;;;;;;;;;22.40;62.70;;;;;;5044642;28;87143;-40
2022/09/16 03:22:53;;;;;;;;;;;22.40;62.70;;;;;;5046921;27;87490;-40
2022/09/16 03:25:19;;;;;;;;;;;22.30;62.70;;;;;;5043745;27;88046;-40
2022/09/16 03:27:50;;;;;;;;;;;22.30;62.70;;;;;;5044344;28;88192;-40
2022/09/16 03:30:15;;;;;;;;;;;22.30;62.70;;;;;;5044079;27;87336;-40
2022/09/16 03:32:48;;;;;;;;;;;22.30;62.70;;;;;;5044121;27;86971;-40
2022/09/16 03:35:24;;;;;;;;;;;22.30;62.80;;;;;;5044048;28;87782;-40
2022/09/16 03:37:52;;;;;;;;;;;22.30;62.70;;;;;;5043698;28;89512;-40
2022/09/16 03:40:18;;;;;;;;;;;22.30;62.70;;;;;;5044001;27;87099;-40
2022/09/16 03:42:44;;;;;;;;;;;22.30;62.70;;;;;;5047117;27;87412;-40
2022/09/16 03:45:20;;;;;;;;;;;22.30;62.70;;;;;;5044120;27;87117;-40
2022/09/16 03:47:47;;;;;;;;;;;22.20;62.70;;;;;;5044189;27;86988;-40
2022/09/16 03:50:13;;;;;;;;;;;22.30;63.40;;;;;;5042586;27;90017;-40
2022/09/16 03:52:38;;;;;;;;;;;22.30;62.80;;;;;;5043735;28;87013;-41
2022/09/16 03:55:04;;;;;;;;;;;22.30;62.80;;;;;;5043858;27;87634;-40
2022/09/16 03:57:31;;;;;;;;;;;22.30;62.90;;;;;;5043700;27;87962;-40
2022/09/16 03:59:56;;;;;;;;;;;22.20;62.80;;;;;;5043466;27;87114;-40
2022/09/16 04:02:21;;;;;;;;;;;22.20;62.80;;;;;;5043853;28;87388;-40
2022/09/16 04:04:47;;;;;;;;;;;22.20;62.90;;;;;;5046276;28;87232;-40
2022/09/16 04:07:13;;;;;;;;;;;22.20;62.80;;;;;;5044270;28;87409;-40
2022/09/16 04:09:39;;;;;;;;;;;22.20;62.80;;;;;;5042870;28;88060;-40
2022/09/16 04:12:06;;;;;;;;;;;22.20;62.80;;;;;;5043592;28;87167;-40
2022/09/16 04:14:32;;;;;;;;;;;22.20;62.90;;;;;;5042690;27;89073;-40
2022/09/16 04:16:58;;;;;;;;;;;22.20;62.80;;;;;;5042899;28;88073;-40
2022/09/16 04:19:23;;;;;;;;;;;22.20;62.90;;;;;;5043177;28;87154;-40
2022/09/16 04:21:49;;;;;;;;;;;22.20;62.90;;;;;;5043533;27;87425;-45
2022/09/16 04:24:14;;;;;;;;;;;22.20;62.90;;;;;;5043117;28;87191;-40
2022/09/16 04:26:40;;;;;;;;;;;22.20;62.80;;;;;;5046160;28;86992;-40
2022/09/16 04:29:06;;;;;;;;;;;22.20;62.90;;;;;;5042708;27;88396;-40
2022/09/16 04:31:31;;;;;;;;;;;22.20;62.90;;;;;;5043892;28;86531;-41
2022/09/16 04:33:57;;;;;;;;;;;22.20;62.90;;;;;;5043078;27;88110;-40
2022/09/16 04:36:23;;;;;;;;;;;22.10;62.80;;;;;;5042784;28;88048;-40
2022/09/16 04:38:48;;;;;;;;;;;22.10;62.80;;;;;;5042489;27;88412;-40
2022/09/16 04:41:24;;;;;;;;;;;22.10;62.80;;;;;;5042534;27;90090;-40
2022/09/16 04:43:54;;;;;;;;;;;22.10;62.80;;;;;;5042685;28;88528;-40
2022/09/16 04:46:20;;;;;;;;;;;22.10;62.80;;;;;;5043109;27;86967;-40
2022/09/16 04:48:47;;;;;;;;;;;22.10;62.80;;;;;;5045384;27;87395;-40
2022/09/16 04:51:13;;;;;;;;;;;22.10;62.80;;;;;;5042915;27;87132;-40
2022/09/16 04:53:39;;;;;;;;;;;22.10;62.90;;;;;;5043173;27;87422;-40
2022/09/16 04:56:13;;;;;;;;;;;22.10;62.80;;;;;;5042686;27;89540;-40
2022/09/16 04:58:39;;;;;;;;;;;22.10;62.90;;;;;;5042823;27;87062;-40
2022/09/16 05:01:05;;;;;;;;;;;22.10;62.90;;;;;;5042606;28;87443;-40
2022/09/16 05:03:31;;;;;;;;;;;22.10;62.90;;;;;;5042031;27;89111;-40
2022/09/16 05:06:06;;;;;;;;;;;22.10;63.00;;;;;;5043034;28;87088;-40
2022/09/16 05:08:34;;;;;;;;;;;22.00;62.90;;;;;;5042359;27;87348;-40
2022/09/16 05:11:05;;;;;;;;;;;22.10;62.90;;;;;;5044908;27;88925;-40
2022/09/16 05:13:31;;;;;;;;;;;22.10;62.90;;;;;;5042783;28;87421;-40
2022/09/16 05:16:00;;;;;;;;;;;22.10;62.90;;;;;;5042306;28;87975;-40
2022/09/16 05:18:26;;;;;;;;;;;22.10;62.90;;;;;;5042659;27;87223;-40
2022/09/16 05:20:55;;;;;;;;;;;22.00;62.90;;;;;;5043361;27;87429;-40
2022/09/16 05:23:22;;;;;;;;;;;22.00;62.90;;;;;;5042218;27;87684;-40
2022/09/16 05:25:47;;;;;;;;;;;22.00;62.90;;;;;;5042758;28;87411;-40
2022/09/16 05:28:13;;;;;;;;;;;22.00;62.90;;;;;;5042022;28;87949;-40
2022/09/16 05:30:38;;;;;;;;;;;22.00;62.90;;;;;;5042043;28;88190;-40
2022/09/16 05:33:04;;;;;;;;;;;22.00;62.90;;;;;;5045345;28;87093;-40
2022/09/16 05:35:29;;;;;;;;;;;22.00;62.90;;;;;;5042179;28;88022;-40
2022/09/16 05:37:54;;;;;;;;;;;22.00;62.90;;;;;;5042392;28;87092;-40
2022/09/16 05:40:21;;;;;;;;;;;22.00;62.90;;;;;;5042211;28;88356;-40
2022/09/16 05:42:48;;;;;;;;;;;22.00;62.90;;;;;;5041914;27;89206;-40
2022/09/16 05:45:13;;;;;;;;;;;22.00;62.90;;;;;;5042578;27;87224;-40
2022/09/16 05:47:39;;;;;;;;;;;22.00;62.90;;;;;;5042033;27;88094;-40
2022/09/16 05:50:05;;;;;;;;;;;22.00;62.90;;;;;;5041850;28;88028;-40
2022/09/16 05:52:30;;;;;;;;;;;22.00;63.00;;;;;;5044467;27;87975;-40
2022/09/16 05:54:56;;;;;;;;;;;22.00;63.00;;;;;;5044688;28;87383;-41
2022/09/16 05:57:22;;;;;;;;;;;22.00;62.90;;;;;;5045884;28;87167;-40
2022/09/16 05:59:48;;;;;;;;;;;22.00;62.90;;;;;;5045426;27;87871;-40
2022/09/16 06:02:13;;;;;;;;;;;22.00;62.90;;;;;;5045247;28;88264;-40
2022/09/16 06:04:39;;;;;;;;;;;22.00;62.90;;;;;;5045567;27;87088;-40
2022/09/16 06:07:06;;;;;;;;;;;22.00;63.00;;;;;;5045566;27;87578;-40
2022/09/16 06:09:31;;;;;;;;;;;22.00;63.00;;;;;;5044879;27;88809;-40
2022/09/16 06:11:57;;;;;;;;;;;21.90;63.00;;;;;;5045436;28;87149;-40
2022/09/16 06:14:22;;;;;;;;;;;22.00;63.10;;;;;;5047955;28;87439;-40
2022/09/16 06:16:48;;;;;;;;;;;22.00;63.10;;;;;;5044773;28;88159;-40
2022/09/16 06:19:15;;;;;;;;;;;22.00;63.10;;;;;;5045323;27;88471;-40
2022/09/16 06:21:42;;;;;;;;;;;22.00;63.20;;;;;;5044627;27;89331;-40
2022/09/16 06:24:08;;;;;;;;;;;22.00;63.10;;;;;;5044989;27;87170;-41
2022/09/16 06:26:38;;;;;;;;;;;21.90;63.10;;;;;;5045094;27;88678;-40
2022/09/16 06:29:05;;;;;;;;;;;22.00;63.10;;;;;;5044669;28;88084;-40
2022/09/16 06:31:30;;;;;;;;;;;22.00;63.10;;;;;;5045128;27;87144;-40
2022/09/16 06:33:56;;;;;;;;;;;22.00;63.10;;;;;;5045878;27;86592;-40
2022/09/16 06:36:23;;;;;;;;;;;22.00;63.20;;;;;;5047856;28;87661;-40
2022/09/16 06:38:48;;;;;;;;;;;22.00;63.20;;;;;;5045145;27;87377;-40
2022/09/16 06:41:15;;;;;;;;;;;22.00;63.20;;;;;;5043958;27;88900;-40
2022/09/16 06:43:40;;;;;;;;;;;22.00;63.20;;;;;;5044819;27;87465;-40
2022/09/16 06:46:15;;;;;;;;;;;22.00;63.10;;;;;;5045083;27;87401;-41
2022/09/16 06:48:41;;;;;;;;;;;22.00;63.10;;;;;;5044457;27;89674;-40
2022/09/16 06:51:08;;;;;;;;;;;22.00;63.10;;;;;;5044698;28;87119;-40
2022/09/16 06:53:34;;;;;;;;;;;22.00;63.10;;;;;;5044806;28;87912;-41
2022/09/16 06:56:04;;;;;;;;;;;22.00;63.10;;;;;;5044610;27;87966;-41
2022/09/16 06:58:34;;;;;;;;;;;22.00;63.10;;;;;;5047787;27;86305;-40
2022/09/16 07:01:10;;;;;;;;;;;22.00;63.10;;;;;;5044553;28;88077;-40
2022/09/16 07:03:39;;;;;;;;;;;22.00;63.10;;;;;;5044587;27;87188;-40
2022/09/16 07:06:05;;;;;;;;;;;22.00;63.10;;;;;;5043809;27;87880;-40
2022/09/16 07:08:32;;;;;;;;;;;22.00;63.10;;;;;;5043716;28;88053;-41
2022/09/16 07:10:58;;;;;;;;;;;22.10;63.10;;;;;;5044561;27;87216;-40
2022/09/16 07:13:24;;;;;;;;;;;22.10;63.10;;;;;;5044596;28;87334;-40
2022/09/16 07:15:49;;;;;;;;;;;22.00;63.10;;;;;;5043975;28;88041;-40
2022/09/16 07:18:15;;;;;;;;;;;22.00;63.60;;;;;;5044721;28;87114;-40
2022/09/16 07:20:40;;;;;;;;;;;22.00;63.00;;;;;;5046695;27;88943;-40
2022/09/16 07:23:06;;;;;;;;;;;22.10;63.10;;;;;;5044938;28;86231;-40
2022/09/16 07:25:32;;;;;;;;;;;22.10;63.00;;;;;;5044385;28;87148;-40
2022/09/16 07:27:57;;;;;;;;;;;22.10;63.00;;;;;;5044238;27;88094;-40
2022/09/16 07:30:22;;;;;;;;;;;22.10;63.00;;;;;;5043428;28;88088;-40
2022/09/16 07:32:48;;;;;;;;;;;22.10;62.90;;;;;;5044330;28;88430;-40
2022/09/16 07:35:13;;;;;;;;;;;22.10;62.90;;;;;;5043912;28;88134;-40
2022/09/16 07:37:39;;;;;;;;;;;22.10;63.00;;;;;;5044291;28;87148;-40
2022/09/16 07:40:05;;;;;;;;;;;22.10;63.00;;;;;;5044123;28;87017;-40
2022/09/16 07:42:30;;;;;;;;;;;22.10;62.90;;;;;;5046873;28;87714;-40
2022/09/16 07:44:56;;;;;;;;;;;22.20;63.00;;;;;;5044215;28;87403;-40
2022/09/16 07:47:22;;;;;;;;;;;22.10;63.00;;;;;;5044189;27;87225;-40
2022/09/16 07:49:47;;;;;;;;;;;22.10;63.00;;;;;;5044006;28;87153;-40
2022/09/16 07:52:15;;;;;;;;;;;22.20;63.00;;;;;;5043732;27;88809;-40
2022/09/16 07:54:40;;;;;;;;;;;22.10;62.90;;;;;;5042675;27;88934;-40
2022/09/16 07:57:06;;;;;;;;;;;22.20;62.90;;;;;;5043940;28;87033;-40
2022/09/16 07:59:31;;;;;;;;;;;22.10;62.80;;;;;;5044146;28;87346;-40
2022/09/16 08:01:57;;;;;;;;;;;22.20;62.80;;;;;;5046727;28;88113;-40
2022/09/16 08:04:22;;;;;;;;;;;22.20;62.70;;;;;;5043972;28;88138;-40
2022/09/16 08:06:48;;;;;;;;;;;22.20;62.50;;;;;;5043247;28;88406;-40
2022/09/16 08:09:14;;;;;;;;;;;22.20;62.50;;;;;;5043085;28;89510;-40
2022/09/16 08:11:39;;;;;;;;;;;22.20;62.50;;;;;;5043812;28;87398;-40
2022/09/16 08:14:05;;;;;;;;;;;22.20;62.50;;;;;;5043336;27;87917;-40
2022/09/16 08:16:31;;;;;;;;;;;22.20;62.50;;;;;;5042390;27;87131;-40
2022/09/16 08:18:57;;;;;;;;;;;22.20;62.50;;;;;;5043096;27;87893;-40
2022/09/16 08:21:24;;;;;;;;;;;22.20;62.40;;;;;;5042901;27;88366;-40
2022/09/16 08:23:50;;;;;;;;;;;22.20;62.40;;;;;;5046068;27;87074;-40
2022/09/16 08:26:16;;;;;;;;;;;22.30;62.40;;;;;;5043141;27;87196;-40
2022/09/16 08:28:43;;;;;;;;;;;22.20;62.40;;;;;;5043385;28;87103;-40
2022/09/16 08:31:08;;;;;;;;;;;22.30;62.50;;;;;;5043409;28;87427;-40
2022/09/16 08:33:34;;;;;;;;;;;22.30;62.50;;;;;;5042917;28;87298;-40
2022/09/16 08:36:04;;;;;;;;;;;22.30;62.60;;;;;;5043949;28;86623;-41
2022/09/16 08:38:30;;;;;;;;;;;22.30;62.60;;;;;;5042901;27;88283;-40
2022/09/16 08:41:01;;;;;;;;;;;22.20;62.60;;;;;;5042562;27;88037;-40
2022/09/16 08:43:32;;;;;;;;;;;22.30;62.70;;;;;;5042769;27;87779;-40
2022/09/16 08:45:57;;;;;;;;;;;22.30;62.60;;;;;;5045511;27;89557;-40
2022/09/16 08:48:42;;;;;;;;;;;22.20;62.70;;;;;;5042822;27;86982;-40
2022/09/16 08:51:11;;;;;;;;;;;22.30;62.70;;;;;;5042745;27;86966;-40
2022/09/16 08:53:39;;;;;;;;;;;22.30;62.70;;;;;;5042657;27;87150;-40
2022/09/16 08:56:06;;;;;;;;;;;22.30;62.80;;;;;;5042899;27;87153;-40
2022/09/16 08:58:40;;;;;;;;;;;22.30;62.80;;;;;;5042887;27;89309;-40
2022/09/16 09:01:18;;;;;;;;;;;22.30;62.90;;;;;;5042900;27;87280;-40
2022/09/16 09:03:44;;;;;;;;;;;22.20;62.90;;;;;;5042674;27;86983;-41
2022/09/16 09:06:23;;;;;;;;;;;22.30;62.90;;;;;;5042922;27;86977;-40
2022/09/16 09:08:50;;;;;;;;;;;22.30;62.90;;;;;;5042937;28;92001;-40
2022/09/16 09:11:18;;;;;;;;;;;22.30;62.90;;;;;;5042607;27;90084;-40
2022/09/16 09:13:52;;;;;;;;;;;22.30;63.00;;;;;;5042426;28;88053;-40
2022/09/16 09:16:24;;;;;;;;;;;22.30;63.00;;;;;;5042350;28;87060;-40
2022/09/16 09:19:19;;;;;;;;;;;22.40;63.10;;;;;;5042421;27;89031;-41
2022/09/16 09:22:02;;;;;;;;;;;22.30;63.10;;;;;;5032704;27;88140;-41
2022/09/16 09:24:47;;;;;;;;;;;22.40;63.10;;;;;;5042333;27;87105;-41
2022/09/16 09:27:22;;;;;;;;;;;22.40;63.10;;;;;;5043573;27;87438;-41
2022/09/16 09:30:05;;;;;;;;;;;22.40;63.10;;;;;;5045775;28;88430;-41
2022/09/16 09:32:34;;;;;;;;;;;22.30;63.10;;;;;;5049085;27;87196;-41
2022/09/16 09:34:59;;;;;;;;;;;22.40;63.20;;;;;;5044965;28;89009;-41
2022/09/16 09:37:28;;;;;;;;;;;22.30;63.20;;;;;;5046150;27;87497;-41
2022/09/16 09:39:56;;;;;;;;;;;22.40;63.20;;;;;;5046132;28;87399;-41
2022/09/16 09:42:33;;;;;;;;;;;22.40;63.00;;;;;;5045648;28;88014;-41
2022/09/16 09:45:02;;;;;;;;;;;22.40;63.00;;;;;;5045890;28;87150;-41
2022/09/16 09:47:40;;;;;;;;;;;22.40;63.10;;;;;;5045477;28;88828;-41
2022/09/16 09:50:25;;;;;;;;;;;22.40;63.10;;;;;;5045376;27;89701;-41
2022/09/16 09:52:56;;;;;;;;;;;22.40;63.10;;;;;;5046369;27;86343;-41
2022/09/16 09:55:23;;;;;;;;;;;22.40;63.10;;;;;;5048013;28;86968;-41
2022/09/16 09:57:54;;;;;;;;;;;22.50;63.10;;;;;;5045405;27;87074;-41
2022/09/16 10:00:20;;;;;;;;;;;22.50;63.10;;;;;;5045056;28;88295;-41
2022/09/16 10:02:46;;;;;;;;;;;22.40;63.00;;;;;;5045257;28;88033;-41
2022/09/16 10:05:25;;;;;;;;;;;22.50;63.10;;;;;;5045719;28;87153;-41
2022/09/16 10:07:52;;;;;;;;;;;22.50;63.00;;;;;;5045118;28;87770;-41
2022/09/16 10:10:22;;;;;;;;;;;22.50;63.10;;;;;;5045307;28;88034;-41
2022/09/16 10:12:48;;;;;;;;;;;22.40;63.00;;;;;;5045012;28;87125;-41
2022/09/16 10:15:26;;;;;;;;;;;22.50;63.10;;;;;;5048153;27;86902;-41
2022/09/16 10:17:51;;;;;;;;;;;22.50;63.00;;;;;;5045766;28;86421;-41
2022/09/16 10:20:20;;;;;;;;;;;22.40;62.90;;;;;;5045563;28;86820;-41
2022/09/16 10:22:53;;;;;;;;;;;22.40;62.80;;;;;;5044938;27;88087;-41
2022/09/16 10:25:25;;;;;;;;;;;22.50;63.60;;;;;;5044479;28;88024;-41
2022/09/16 10:27:57;;;;;;;;;;;22.50;63.00;;;;;;5045020;27;89563;-41
2022/09/16 10:30:22;;;;;;;;;;;22.50;63.00;;;;;;5044597;27;89818;-41
2022/09/16 10:32:59;;;;;;;;;;;22.50;63.00;;;;;;5045158;27;87014;-41
2022/09/16 10:35:25;;;;;;;;;;;22.50;63.00;;;;;;5045464;28;87504;-41
2022/09/16 10:37:55;;;;;;;;;;;22.50;63.10;;;;;;5047296;27;88482;-41
2022/09/16 10:40:22;;;;;;;;;;;22.50;63.30;;;;;;5044273;27;87980;-41
2022/09/16 10:42:49;;;;;;;;;;;22.50;63.60;;;;;;5044912;27;88575;-41
2022/09/16 10:45:21;;;;;;;;;;;22.50;63.60;;;;;;5044826;27;87110;-41
2022/09/16 10:47:50;;;;;;;;;;;22.60;63.70;;;;;;5045135;27;87020;-41
2022/09/16 10:50:17;;;;;;;;;;;22.50;63.70;;;;;;5043600;27;89217;-41
2022/09/16 10:52:44;;;;;;;;;;;22.60;63.80;;;;;;5044854;27;87088;-41
2022/09/16 10:55:16;;;;;;;;;;;22.50;63.80;;;;;;5044967;27;87530;-40
2022/09/16 10:57:42;;;;;;;;;;;22.60;63.90;;;;;;5044271;27;88320;-41
2022/09/16 11:00:18;;;;;;;;;;;22.60;63.90;;;;;;5047534;27;87366;-41
2022/09/16 11:02:46;;;;;;;;;;;22.60;63.90;;;;;;5042619;28;88425;-40
2022/09/16 11:05:21;;;;;;;;;;;22.60;63.80;;;;;;5044938;28;87132;-41
2022/09/16 11:07:46;;;;;;;;;;;22.60;63.70;;;;;;5044818;28;86609;-41
2022/09/16 11:10:24;;;;;;;;;;;22.60;63.70;;;;;;5044281;28;88204;-41
2022/09/16 11:12:49;;;;;;;;;;;22.70;63.70;;;;;;5044557;27;87235;-40
2022/09/16 11:15:27;;;;;;;;;;;22.70;63.60;;;;;;5043934;27;87990;-40
2022/09/16 11:18:20;;;;;;;;;;;22.60;63.40;;;;;;5043947;27;87811;-41
2022/09/16 11:20:53;;;;;;;;;;;22.70;63.50;;;;;;5044611;28;86996;-41
2022/09/16 11:23:25;;;;;;;;;;;22.70;63.50;;;;;;5046736;27;88010;-41
2022/09/16 11:25:57;;;;;;;;;;;22.70;63.50;;;;;;5043911;27;87253;-41
2022/09/16 11:28:55;;;;;;;;;;;22.70;63.50;;;;;;5044252;28;87480;-41
2022/09/16 11:31:20;;;;;;;;;;;22.70;63.50;;;;;;5020022;27;87917;-41
2022/09/16 11:33:49;;;;;;;;;;;22.80;63.50;;;;;;5044764;27;86391;-41
2022/09/16 11:36:29;;;;;;;;;;;22.80;63.50;;;;;;5043730;27;88134;-41
2022/09/16 11:39:10;;;;;;;;;;;22.80;63.50;;;;;;5044104;28;88040;-41
2022/09/16 11:41:41;;;;;;;;;;;22.80;63.40;;;;;;5043518;27;88061;-41
2022/09/16 11:44:19;;;;;;;;;;;22.80;63.30;;;;;;5043781;27;89754;-41
2022/09/16 11:46:51;;;;;;;;;;;22.90;63.30;;;;;;5046505;27;88471;-41
2022/09/16 11:49:35;;;;;;;;;;;22.80;63.30;;;;;;5043968;27;87413;-41
2022/09/16 11:52:16;;;;;;;;;;;22.90;63.30;;;;;;5042234;27;87780;-41
2022/09/16 11:54:50;;;;;;;;;;;22.90;63.30;;;;;;5044073;27;87060;-41
2022/09/16 11:57:17;;;;;;;;;;;22.90;63.20;;;;;;5043639;27;87671;-41
2022/09/16 11:59:52;;;;;;;;;;;22.90;63.20;;;;;;5043754;27;88527;-41
2022/09/16 12:02:24;;;;;;;;;;;22.90;63.20;;;;;;5043531;27;87041;-41
2022/09/16 12:04:52;;;;;;;;;;;22.90;63.20;;;;;;5043891;28;87384;-41
2022/09/16 12:07:18;;;;;;;;;;;22.90;63.20;;;;;;5042542;27;88673;-41
2022/09/16 12:10:04;;;;;;;;;;;22.90;63.20;;;;;;5045884;27;86884;-41
2022/09/16 12:12:36;;;;;;;;;;;22.90;63.20;;;;;;5043183;28;88060;-41
2022/09/16 12:15:06;;;;;;;;;;;22.90;63.20;;;;;;5043348;28;87114;-40
2022/09/16 12:17:33;;;;;;;;;;;22.90;63.20;;;;;;5043182;27;88606;-41
2022/09/16 12:20:02;;;;;;;;;;;22.90;63.20;;;;;;5042961;28;89505;-41
2022/09/16 12:22:34;;;;;;;;;;;22.90;63.20;;;;;;5043184;27;87049;-41
2022/09/16 12:25:06;;;;;;;;;;;22.90;63.20;;;;;;5043846;28;87407;-41
2022/09/16 12:27:35;;;;;;;;;;;22.90;63.30;;;;;;5042867;28;88079;-41
2022/09/16 12:30:05;;;;;;;;;;;22.90;63.30;;;;;;5046164;27;86974;-41
2022/09/16 12:32:42;;;;;;;;;;;22.90;63.30;;;;;;5041953;27;89534;-41
2022/09/16 12:35:31;;;;;;;;;;;22.90;63.30;;;;;;5043212;27;87089;-41
2022/09/16 12:37:56;;;;;;;;;;;22.90;63.30;;;;;;5022682;27;87225;-41
2022/09/16 12:40:25;;;;;;;;;;;22.90;63.30;;;;;;5042598;27;89230;-41
2022/09/16 12:43:09;;;;;;;;;;;22.90;63.30;;;;;;5043165;28;87121;-41
2022/09/16 12:45:46;;;;;;;;;;;22.90;63.30;;;;;;5043225;27;87382;-41
2022/09/16 12:48:20;;;;;;;;;;;22.90;63.30;;;;;;5042434;28;89186;-41
2022/09/16 12:51:10;;;;;;;;;;;22.90;63.30;;;;;;5043547;27;86462;-41
2022/09/16 12:53:45;;;;;;;;;;;22.90;63.30;;;;;;5045442;27;86989;-41
2022/09/16 12:56:49;;;;;;;;;;;22.90;63.30;;;;;;5042842;27;87761;-41
2022/09/16 12:59:20;;;;;;;;;;;22.90;63.40;;;;;;4999345;28;88045;-41
2022/09/16 13:01:47;;;;;;;;;;;23.00;63.40;;;;;;4999837;28;88004;-41
2022/09/16 13:04:12;;;;;;;;;;;22.90;63.40;;;;;;5020840;27;87127;-41
2022/09/16 13:06:39;;;;;;;;;;;22.90;63.40;;;;;;5042793;28;87443;-41
2022/09/16 13:09:32;;;;;;;;;;;22.90;63.40;;;;;;5042019;28;87534;-41
2022/09/16 13:12:00;;;;;;;;;;;22.90;63.40;;;;;;5040571;28;86965;-40
2022/09/16 13:14:43;;;;;;;;;;;22.90;63.30;;;;;;5042430;27;87504;-41
2022/09/16 13:17:09;;;;;;;;;;;22.90;63.30;;;;;;5045401;28;89176;-41
2022/09/16 13:19:40;;;;;;;;;;;22.90;63.30;;;;;;5042643;27;87555;-41
2022/09/16 13:22:11;;;;;;;;;;;22.90;63.30;;;;;;5042034;28;89345;-41
2022/09/16 13:24:39;;;;;;;;;;;22.90;63.30;;;;;;5042153;27;88060;-40
2022/09/16 13:27:33;;;;;;;;;;;22.90;63.30;;;;;;5042117;27;87485;-41
2022/09/16 13:30:06;;;;;;;;;;;22.90;63.30;;;;;;5032483;27;87982;-41
2022/09/16 13:32:43;;;;;;;;;;;23.00;63.30;;;;;;5042349;27;87173;-41
2022/09/16 13:35:15;;;;;;;;;;;22.90;63.20;;;;;;5042485;27;88632;-41
2022/09/16 13:37:40;;;;;;;;;;;23.00;63.30;;;;;;5041942;28;88102;-41
2022/09/16 13:40:25;;;;;;;;;;;23.00;63.30;;;;;;5045251;28;87119;-41
2022/09/16 13:43:02;;;;;;;;;;;23.00;63.30;;;;;;5042558;27;87380;-41
2022/09/16 13:45:36;;;;;;;;;;;23.00;63.20;;;;;;5042250;27;87011;-41
2022/09/16 13:48:12;;;;;;;;;;;23.00;63.20;;;;;;5042140;28;87409;-41
2022/09/16 13:50:41;;;;;;;;;;;23.00;63.20;;;;;;5039815;28;90613;-41
2022/09/16 13:53:41;;;;;;;;;;;23.00;63.20;;;;;;5042196;27;87098;-41
2022/09/16 13:56:19;;;;;;;;;;;23.00;63.20;;;;;;4999351;28;87424;-41
2022/09/16 13:58:55;;;;;;;;;;;23.00;63.20;;;;;;5036454;27;88136;-41
2022/09/16 14:01:33;;;;;;;;;;;23.00;63.20;;;;;;5042354;27;86986;-41
2022/09/16 14:04:11;;;;;;;;;;;23.00;63.30;;;;;;5044554;28;88655;-41
2022/09/16 14:06:40;;;;;;;;;;;23.00;63.30;;;;;;5042275;28;86977;-40
2022/09/16 14:09:11;;;;;;;;;;;23.00;63.30;;;;;;5024325;28;87430;-40
2022/09/16 14:11:42;;;;;;;;;;;22.90;66.00;;;;;;5021302;28;89300;-41
2022/09/16 14:14:09;;;;;;;;;;;22.90;67.70;;;;;;5022029;28;87041;-41
2022/09/16 14:16:38;;;;;;;;;;;22.80;68.80;;;;;;5024436;28;88018;-45
2022/09/16 14:19:17;;;;;;;;;;;22.80;69.30;;;;;;5024730;28;89268;-40
2022/09/16 14:21:43;;;;;;;;;;;22.80;68.90;;;;;;5025217;28;86916;-42
2022/09/16 14:24:11;;;;;;;;;;;22.80;68.60;;;;;;5027852;28;87447;-41
2022/09/16 14:26:37;;;;;;;;;;;22.90;68.80;;;;;;5025286;28;87124;-41
2022/09/16 14:29:03;;;;;;;;;;;22.90;68.20;;;;;;5025286;28;87301;-41
2022/09/16 14:31:30;;;;;;;;;;;23.10;67.80;;;;;;5024748;28;88041;-41
2022/09/16 14:33:57;;;;;;;;;;;23.10;67.50;;;;;;5025384;28;86331;-40
2022/09/16 14:36:23;;;;;;;;;;;23.20;67.10;;;;;;5025027;28;88062;-44
2022/09/16 14:38:59;;;;;;;;;;;23.20;67.10;;;;;;5024772;28;88023;-41